createdAt,value
2018-10-21T00:02:16.638Z,97207.62
2018-10-21T00:04:45.786Z,97212.19
2018-10-21T00:07:15.633Z,97213.52
2018-10-21T00:09:44.432Z,97213.41
2018-10-21T00:12:13.215Z,97207.17
2018-10-21T00:14:42.049Z,97216.55
2018-10-21T00:17:11.704Z,97221.97
2018-10-21T00:19:41.010Z,97216.97
2018-10-21T00:22:09.843Z,97212.84
2018-10-21T00:24:38.694Z,97214.06
2018-10-21T00:27:08.680Z,97218.87
2018-10-21T00:29:38.008Z,97214.88
2018-10-21T00:32:06.875Z,97211.91
2018-10-21T00:34:35.697Z,97216.72
2018-10-21T00:37:05.451Z,97212.22
2018-10-21T00:39:34.283Z,97209.97
2018-10-21T00:42:03.139Z,97205.36
2018-10-21T00:44:33.063Z,97207.82
2018-10-21T00:47:02.312Z,97205.47
2018-10-21T00:49:31.166Z,97210.03
2018-10-21T00:52:00.056Z,97211.05
2018-10-21T00:54:28.847Z,97211.66
2018-10-21T00:56:57.989Z,97209.52
2018-10-21T00:59:26.838Z,97204.50
2018-10-21T01:01:55.734Z,97202.63
2018-10-21T01:04:24.591Z,97199.39
2018-10-21T01:06:53.445Z,97195.91
2018-10-21T01:09:22.287Z,97195.39
2018-10-21T01:11:51.550Z,97203.37
2018-10-21T01:14:20.374Z,97194.64
2018-10-21T01:16:49.171Z,97197.92
2018-10-21T01:19:18.651Z,97189.73
2018-10-21T01:21:47.471Z,97195.97
2018-10-21T01:24:16.295Z,97192.58
2018-10-21T01:26:45.111Z,97191.53
2018-10-21T01:29:14.415Z,97188.35
2018-10-21T01:31:43.232Z,97191.77
2018-10-21T01:34:12.118Z,97189.17
2018-10-21T01:36:41.317Z,97192.65
2018-10-21T01:39:11.463Z,97189.41
2018-10-21T01:41:40.431Z,97197.20
2018-10-21T01:44:09.590Z,97194.75
2018-10-21T01:46:38.472Z,97196.52
2018-10-21T01:49:07.320Z,97198.16
2018-10-21T01:51:36.492Z,97198.06
2018-10-21T01:54:05.650Z,97197.55
2018-10-21T01:56:34.595Z,97203.80
2018-10-21T01:59:03.466Z,97197.55
2018-10-21T02:01:32.357Z,97202.63
2018-10-21T02:04:01.199Z,97200.78
2018-10-21T02:06:29.994Z,97199.97
2018-10-21T02:08:58.938Z,97197.70
2018-10-21T02:11:28.751Z,97200.38
2018-10-21T02:13:57.892Z,97197.59
2018-10-21T02:16:26.765Z,97199.75
2018-10-21T02:18:55.589Z,97196.58
2018-10-21T02:21:24.394Z,97197.09
2018-10-21T02:23:53.239Z,97193.67
2018-10-21T02:26:22.112Z,97184.88
2018-10-21T02:28:51.263Z,97187.33
2018-10-21T02:31:20.105Z,97187.63
2018-10-21T02:33:48.968Z,97194.59
2018-10-21T02:36:18.301Z,97194.17
2018-10-21T02:38:47.155Z,97192.39
2018-10-21T02:41:29.460Z,97188.95
2018-10-21T02:43:58.319Z,97189.22
2018-10-21T02:46:27.434Z,97183.83
2018-10-21T02:48:57.634Z,97189.16
2018-10-21T02:51:26.532Z,97193.31
2018-10-21T02:53:55.384Z,97184.60
2018-10-21T02:56:24.202Z,97194.23
2018-10-21T02:58:53.075Z,97192.38
2018-10-21T03:01:21.927Z,97187.87
2018-10-21T03:03:51.299Z,97184.60
2018-10-21T03:06:21.058Z,97184.30
2018-10-21T03:08:49.915Z,97186.75
2018-10-21T03:11:18.761Z,97184.60
2018-10-21T03:13:48.052Z,97179.68
2018-10-21T03:16:16.915Z,97179.53
2018-10-21T03:21:33.111Z,97174.61
2018-10-21T03:24:01.954Z,97169.07
2018-10-21T03:26:30.804Z,97170.92
2018-10-21T03:28:59.658Z,97173.89
2018-10-21T03:31:28.498Z,97172.45
2018-10-21T03:33:57.537Z,97175.84
2018-10-21T03:36:26.469Z,97178.50
2018-10-21T03:38:55.321Z,97175.03
2018-10-21T03:41:24.137Z,97181.69
2018-10-21T03:43:53.388Z,97174.30
2018-10-21T03:46:22.198Z,97168.47
2018-10-21T03:48:51.068Z,97178.09
2018-10-21T03:51:19.930Z,97173.79
2018-10-21T03:53:48.788Z,97175.73
2018-10-21T03:56:17.680Z,97176.30
2018-10-21T03:58:46.855Z,97173.95
2018-10-21T04:01:15.794Z,97177.63
2018-10-21T04:03:44.686Z,97174.40
2018-10-21T04:06:14.035Z,97178.76
2018-10-21T04:08:43.427Z,97178.55
2018-10-21T04:11:12.326Z,97175.06
2018-10-21T04:13:41.191Z,97171.59
2018-10-21T04:16:10.145Z,97167.48
2018-10-21T04:18:39.951Z,97177.52
2018-10-21T04:21:08.774Z,97169.53
2018-10-21T04:23:37.647Z,97168.30
2018-10-21T04:26:06.582Z,97169.41
2018-10-21T04:28:35.475Z,97164.81
2018-10-21T04:31:05.213Z,97162.16
2018-10-21T04:33:40.982Z,97165.33
2018-10-21T04:36:11.745Z,97161.03
2018-10-21T04:38:52.037Z,97164.52
2018-10-21T04:41:20.991Z,97158.67
2018-10-21T04:43:49.847Z,97161.34
2018-10-21T04:46:19.040Z,97156.83
2018-10-21T04:48:47.888Z,97158.06
2018-10-21T04:51:16.964Z,97165.33
2018-10-21T04:53:45.855Z,97169.11
2018-10-21T04:56:14.995Z,97165.42
2018-10-21T04:58:43.852Z,97169.41
2018-10-21T05:01:14.663Z,97172.95
2018-10-21T05:03:43.519Z,97183.70
2018-10-21T05:06:12.361Z,97182.67
2018-10-21T05:08:41.244Z,97187.18
2018-10-21T05:11:10.394Z,97186.45
2018-10-21T05:13:39.250Z,97181.64
2018-10-21T05:16:08.171Z,97189.63
2018-10-21T05:18:36.951Z,97188.16
2018-10-21T05:21:06.390Z,97181.49
2018-10-21T05:23:35.259Z,97183.64
2018-10-21T05:26:04.244Z,97182.52
2018-10-21T05:28:33.740Z,97190.52
2018-10-21T05:31:03.063Z,97187.42
2018-10-21T05:33:31.918Z,97179.86
2018-10-21T05:36:00.854Z,97193.33
2018-10-21T05:38:30.342Z,97192.51
2018-10-21T05:40:59.228Z,97198.44
2018-10-21T05:43:28.113Z,97195.33
2018-10-21T05:45:56.936Z,97190.09
2018-10-21T05:48:26.244Z,97194.09
2018-10-21T05:50:55.212Z,97203.41
2018-10-21T05:53:24.724Z,97205.56
2018-10-21T05:55:53.715Z,97207.09
2018-10-21T05:58:22.953Z,97215.09
2018-10-21T06:00:51.783Z,97210.58
2018-10-21T06:03:32.215Z,97209.03
2018-10-21T06:06:01.049Z,97212.41
2018-10-21T06:08:30.903Z,97216.30
2018-10-21T06:11:00.055Z,97218.36
2018-10-21T06:13:28.950Z,97217.64
2018-10-21T06:15:57.896Z,97215.58
2018-10-21T06:18:27.722Z,97214.77
2018-10-21T06:21:02.251Z,97213.43
2018-10-21T06:23:31.495Z,97218.55
2018-10-21T06:26:00.359Z,97219.73
2018-10-21T06:28:29.228Z,97223.61
2018-10-21T06:30:59.910Z,97222.58
2018-10-21T06:33:29.083Z,97220.80
2018-10-21T06:35:58.159Z,97226.30
2018-10-21T06:38:27.015Z,97224.30
2018-10-21T06:40:55.868Z,97232.60
2018-10-21T06:43:25.018Z,97240.78
2018-10-21T06:45:53.946Z,97235.59
2018-10-21T06:48:22.837Z,97236.41
2018-10-21T06:50:51.693Z,97236.02
2018-10-21T06:53:20.514Z,97241.75
2018-10-21T06:55:49.346Z,97247.69
2018-10-21T06:58:19.574Z,97249.68
2018-10-21T07:00:48.474Z,97249.56
2018-10-21T07:03:17.367Z,97251.19
2018-10-21T07:06:24.887Z,97253.13
2018-10-21T07:08:55.034Z,97254.01
2018-10-21T07:11:23.916Z,97258.70
2018-10-21T07:13:54.810Z,97256.34
2018-10-21T07:16:25.131Z,97256.39
2018-10-21T07:18:54.264Z,97267.15
2018-10-21T07:21:23.071Z,97264.87
2018-10-21T07:23:51.906Z,97263.84
2018-10-21T07:26:20.707Z,97261.62
2018-10-21T07:28:50.326Z,97261.28
2018-10-21T07:31:19.615Z,97258.57
2018-10-21T07:33:48.458Z,97263.69
2018-10-21T07:36:17.296Z,97258.93
2018-10-21T07:38:47.921Z,97261.55
2018-10-21T07:41:17.302Z,97252.87
2018-10-21T07:43:48.966Z,97254.97
2018-10-21T07:46:19.670Z,97254.30
2018-10-21T07:48:49.826Z,97261.05
2018-10-21T07:51:18.750Z,97256.83
2018-10-21T07:53:47.596Z,97261.40
2018-10-21T07:56:16.419Z,97257.27
2018-10-21T07:58:45.330Z,97262.69
2018-10-21T08:01:14.197Z,97265.95
2018-10-21T08:03:43.589Z,97274.31
2018-10-21T08:06:35.753Z,97272.98
2018-10-21T08:09:07.655Z,97273.14
2018-10-21T08:11:38.315Z,97276.25
2018-10-21T08:14:08.299Z,97280.69
2018-10-21T08:16:37.192Z,97276.90
2018-10-21T08:19:06.198Z,97277.06
2018-10-21T08:21:35.485Z,97281.16
2018-10-21T08:24:06.920Z,97288.91
2018-10-21T08:26:38.362Z,97289.16
2018-10-21T08:29:09.189Z,97285.38
2018-10-21T08:31:39.243Z,97283.05
2018-10-21T08:34:08.097Z,97291.36
2018-10-21T08:36:36.954Z,97284.55
2018-10-21T08:39:08.007Z,97289.45
2018-10-21T08:41:36.964Z,97292.69
2018-10-21T08:44:09.565Z,97295.44
2018-10-21T08:46:39.446Z,97296.48
2018-10-21T08:49:17.019Z,97292.55
2018-10-21T08:51:52.050Z,97290.31
2018-10-21T08:54:23.688Z,97293.86
2018-10-21T08:56:52.612Z,97288.88
2018-10-21T08:59:21.526Z,97292.12
2018-10-21T09:01:50.778Z,97292.44
2018-10-21T09:04:19.657Z,97288.92
2018-10-21T09:06:48.527Z,97283.20
2018-10-21T09:09:17.380Z,97285.95
2018-10-21T09:11:46.363Z,97285.09
2018-10-21T09:14:15.195Z,97286.91
2018-10-21T09:16:46.404Z,97277.26
2018-10-21T09:19:18.275Z,97280.64
2018-10-21T09:21:47.287Z,97283.53
2018-10-21T09:24:17.098Z,97286.50
2018-10-21T09:26:52.811Z,97291.08
2018-10-21T09:29:23.454Z,97284.42
2018-10-21T09:31:54.048Z,97285.50
2018-10-21T09:34:22.911Z,97284.31
2018-10-21T09:36:52.379Z,97281.61
2018-10-21T09:39:21.597Z,97283.72
2018-10-21T09:41:52.453Z,97276.17
2018-10-21T09:44:21.323Z,97280.17
2018-10-21T09:46:50.616Z,97286.09
2018-10-21T09:49:20.683Z,97288.30
2018-10-21T09:51:49.510Z,97277.32
2018-10-21T09:54:20.480Z,97269.41
2018-10-21T09:56:50.261Z,97268.59
2018-10-21T09:59:22.595Z,97270.57
2018-10-21T10:01:59.313Z,97266.13
2018-10-21T10:04:29.461Z,97265.09
2018-10-21T10:06:58.371Z,97258.10
2018-10-21T10:09:27.916Z,97253.23
2018-10-21T10:11:57.598Z,97258.45
2018-10-21T10:14:26.442Z,97254.06
2018-10-21T10:16:55.704Z,97255.41
2018-10-21T10:19:24.531Z,97255.11
2018-10-21T10:21:53.473Z,97245.20
2018-10-21T10:24:25.345Z,97247.88
2018-10-21T10:26:54.826Z,97251.10
2018-10-21T10:29:29.897Z,97247.40
2018-10-21T10:31:58.783Z,97252.59
2018-10-21T10:34:27.610Z,97246.15
2018-10-21T10:36:57.152Z,97243.39
2018-10-21T10:39:26.039Z,97238.50
2018-10-21T10:41:54.959Z,97241.63
2018-10-21T10:44:23.756Z,97237.66
2018-10-21T10:46:55.289Z,97241.09
2018-10-21T10:49:24.160Z,97239.86
2018-10-21T10:51:53.788Z,97229.23
2018-10-21T10:54:22.974Z,97236.52
2018-10-21T10:56:51.929Z,97237.34
2018-10-21T10:59:21.327Z,97232.95
2018-10-21T11:01:50.180Z,97231.34
2018-10-21T11:04:20.185Z,97220.67
2018-10-21T11:06:49.149Z,97223.79
2018-10-21T11:09:18.278Z,97220.45
2018-10-21T11:11:47.740Z,97220.57
2018-10-21T11:14:23.327Z,97219.21
2018-10-21T11:16:53.944Z,97218.11
2018-10-21T11:19:25.241Z,97219.41
2018-10-21T11:21:56.081Z,97223.69
2018-10-21T11:24:40.399Z,97225.47
2018-10-21T11:27:09.390Z,97222.12
2018-10-21T11:29:38.349Z,97218.44
2018-10-21T11:32:08.005Z,97225.41
2018-10-21T11:34:37.253Z,97216.88
2018-10-21T11:37:06.189Z,97213.14
2018-10-21T11:39:35.048Z,97204.15
2018-10-21T11:42:05.385Z,97204.63
2018-10-21T11:44:34.223Z,97204.17
2018-10-21T11:47:03.097Z,97205.44
2018-10-21T11:49:31.939Z,97202.84
2018-10-21T11:52:01.807Z,97194.79
2018-10-21T11:54:30.708Z,97196.01
2018-10-21T11:56:59.527Z,97190.64
2018-10-21T11:59:29.524Z,97186.17
2018-10-21T12:01:59.417Z,97190.04
2018-10-21T12:04:28.300Z,97192.54
2018-10-21T12:06:59.890Z,97194.86
2018-10-21T12:09:29.664Z,97191.73
2018-10-21T12:11:59.103Z,97186.02
2018-10-21T12:14:27.933Z,97190.33
2018-10-21T12:16:57.372Z,97192.70
2018-10-21T12:19:26.621Z,97188.78
2018-10-21T12:21:56.942Z,97190.84
2018-10-21T12:24:28.390Z,97178.45
2018-10-21T12:26:59.578Z,97172.27
2018-10-21T12:29:31.185Z,97176.55
2018-10-21T12:32:00.918Z,97179.16
2018-10-21T12:34:30.251Z,97177.16
2018-10-21T12:36:59.158Z,97169.70
2018-10-21T12:39:29.866Z,97169.70
2018-10-21T12:42:00.849Z,97165.73
2018-10-21T12:44:29.731Z,97167.88
2018-10-21T12:46:59.557Z,97165.20
2018-10-21T12:49:29.655Z,97153.30
2018-10-21T12:51:58.666Z,97155.70
2018-10-21T12:54:27.628Z,97158.69
2018-10-21T12:56:58.856Z,97154.05
2018-10-21T12:59:27.712Z,97153.40
2018-10-21T13:01:57.495Z,97150.67
2018-10-21T13:04:27.451Z,97144.94
2018-10-21T13:06:56.975Z,97145.83
2018-10-21T13:09:26.961Z,97143.39
2018-10-21T13:11:57.591Z,97142.78
2018-10-21T13:14:27.758Z,97145.34
2018-10-21T13:16:56.730Z,97137.66
2018-10-21T13:19:26.419Z,97132.11
2018-10-21T13:21:57.228Z,97132.17
2018-10-21T13:24:26.031Z,97131.58
2018-10-21T13:26:55.686Z,97129.91
2018-10-21T13:29:26.653Z,97130.00
2018-10-21T13:31:57.258Z,97123.54
2018-10-21T13:34:28.459Z,97121.44
2018-10-21T13:36:57.740Z,97113.39
2018-10-21T13:39:28.074Z,97116.62
2018-10-21T13:41:57.854Z,97119.68
2018-10-21T13:44:26.752Z,97116.19
2018-10-21T13:46:56.526Z,97116.19
2018-10-21T13:49:25.390Z,97110.30
2018-10-21T13:51:55.123Z,97111.35
2018-10-21T13:54:24.805Z,97107.28
2018-10-21T13:56:56.450Z,97108.33
2018-10-21T13:59:26.257Z,97099.45
2018-10-21T14:01:55.407Z,97102.97
2018-10-21T14:04:25.929Z,97096.80
2018-10-21T14:06:55.748Z,97102.20
2018-10-21T14:09:24.564Z,97097.37
2018-10-21T14:11:53.539Z,97100.53
2018-10-21T14:14:26.035Z,97098.59
2018-10-21T14:16:57.212Z,97100.46
2018-10-21T14:19:27.062Z,97095.86
2018-10-21T14:21:57.363Z,97099.58
2018-10-21T14:24:27.500Z,97096.52
2018-10-21T14:26:56.340Z,97097.78
2018-10-21T14:29:25.179Z,97095.53
2018-10-21T14:31:55.829Z,97086.03
2018-10-21T14:34:26.441Z,97086.72
2018-10-21T14:36:58.391Z,97082.81
2018-10-21T14:39:28.570Z,97084.49
2018-10-21T14:41:57.440Z,97083.96
2018-10-21T14:44:27.632Z,97084.56
2018-10-21T14:46:56.923Z,97087.47
2018-10-21T14:49:25.859Z,97082.00
2018-10-21T14:51:54.686Z,97082.83
2018-10-21T14:54:24.335Z,97079.19
2018-10-21T14:56:56.286Z,97077.59
2018-10-21T14:59:25.699Z,97079.42
2018-10-21T15:01:55.815Z,97072.97
2018-10-21T15:04:25.045Z,97072.75
2018-10-21T15:07:01.451Z,97075.91
2018-10-21T15:09:30.418Z,97077.14
2018-10-21T15:12:04.328Z,97071.27
2018-10-21T15:14:33.823Z,97080.98
2018-10-21T15:17:05.179Z,97087.73
2018-10-21T15:19:35.339Z,97080.52
2018-10-21T15:22:05.469Z,97084.81
2018-10-21T15:24:35.726Z,97081.63
2018-10-21T15:27:05.330Z,97087.06
2018-10-21T15:29:34.186Z,97086.25
2018-10-21T15:32:03.578Z,97080.39
2018-10-21T15:34:32.852Z,97082.14
2018-10-21T15:37:01.662Z,97081.42
2018-10-21T15:39:30.551Z,97087.09
2018-10-21T15:41:59.367Z,97081.83
2018-10-21T15:44:31.815Z,97084.16
2018-10-21T15:47:01.806Z,97078.59
2018-10-21T15:49:33.124Z,97086.70
2018-10-21T15:52:02.919Z,97091.02
2018-10-21T15:54:32.804Z,97090.02
2018-10-21T15:57:01.594Z,97089.27
2018-10-21T16:00:01.303Z,97089.24
2018-10-21T16:02:32.983Z,97097.41
2018-10-21T16:05:10.453Z,97092.59
2018-10-21T16:07:43.689Z,97093.62
2018-10-21T16:10:12.646Z,97102.87
2018-10-21T16:12:41.525Z,97099.98
2018-10-21T16:15:15.110Z,97102.13
2018-10-21T16:18:07.411Z,97102.23
2018-10-21T16:20:41.975Z,97101.90
2018-10-21T16:27:08.185Z,97097.24
2018-10-21T16:29:43.560Z,97105.96
2018-10-21T16:32:15.415Z,97113.77
2018-10-21T16:34:58.436Z,97112.92
2018-10-21T16:37:57.584Z,97112.05
2018-10-21T16:40:28.178Z,97112.73
2018-10-21T16:42:58.278Z,97115.66
2018-10-21T16:45:28.797Z,97117.26
2018-10-21T16:47:59.797Z,97114.04
2018-10-21T16:50:30.532Z,97119.37
2018-10-21T16:53:03.092Z,97117.48
2018-10-21T16:55:32.802Z,97122.75
2018-10-21T16:58:04.652Z,97134.87
2018-10-21T17:00:35.497Z,97134.19
2018-10-21T17:03:05.441Z,97128.67
2018-10-21T17:05:34.305Z,97139.14
2018-10-21T17:08:05.246Z,97138.93
2018-10-21T17:10:35.638Z,97139.48
2018-10-21T17:13:12.924Z,97138.89
2018-10-21T17:15:47.732Z,97145.26
2018-10-21T17:18:20.694Z,97136.97
2018-10-21T17:20:55.444Z,97134.03
2018-10-21T17:23:26.455Z,97133.92
2018-10-21T17:25:57.296Z,97138.35
2018-10-21T17:28:28.520Z,97140.58
2018-10-21T17:31:03.000Z,97134.56
2018-10-21T17:33:35.342Z,97130.98
2018-10-21T17:36:05.026Z,97136.11
2018-10-21T17:38:37.380Z,97134.36
2018-10-21T17:41:12.331Z,97126.61
2018-10-21T17:43:43.391Z,97126.19
2018-10-21T17:46:15.464Z,97126.00
2018-10-21T17:48:44.303Z,97123.55
2018-10-21T17:51:15.499Z,97127.34
2018-10-21T17:53:44.331Z,97123.14
2018-10-21T17:56:13.175Z,97118.15
2018-10-21T17:58:42.032Z,97122.10
2018-10-21T18:01:13.276Z,97124.67
2018-10-21T18:03:43.372Z,97120.47
2018-10-21T18:06:12.735Z,97126.91
2018-10-21T18:08:42.618Z,97125.86
2018-10-21T18:11:14.436Z,97113.73
2018-10-21T18:13:43.619Z,97125.44
2018-10-21T18:16:13.517Z,97122.27
2018-10-21T18:18:44.674Z,97125.55
2018-10-21T18:21:15.722Z,97123.59
2018-10-21T18:23:45.778Z,97123.17
2018-10-21T18:26:14.676Z,97121.72
2018-10-21T18:28:44.903Z,97114.89
2018-10-21T18:31:13.893Z,97120.47
2018-10-21T18:33:43.046Z,97120.07
2018-10-21T18:36:11.871Z,97118.55
2018-10-21T18:38:45.181Z,97124.05
2018-10-21T18:41:14.782Z,97121.98
2018-10-21T18:43:44.088Z,97118.11
2018-10-21T18:46:14.767Z,97117.56
2018-10-21T18:48:45.247Z,97123.47
2018-10-21T18:51:15.121Z,97121.95
2018-10-21T18:53:45.148Z,97113.88
2018-10-21T18:56:14.000Z,97115.59
2018-10-21T18:58:42.864Z,97120.17
2018-10-21T19:01:13.028Z,97117.09
2018-10-21T19:03:43.807Z,97116.66
2018-10-21T19:06:14.143Z,97112.28
2018-10-21T19:08:43.476Z,97112.66
2018-10-21T19:11:14.581Z,97121.31
2018-10-21T19:13:45.437Z,97123.62
2018-10-21T19:16:15.364Z,97125.64
2018-10-21T19:18:46.583Z,97120.66
2018-10-21T19:21:16.233Z,97121.89
2018-10-21T19:23:45.104Z,97120.52
2018-10-21T19:26:13.970Z,97125.27
2018-10-21T19:28:47.680Z,97122.31
2018-10-21T19:31:17.268Z,97121.61
2018-10-21T19:33:49.066Z,97128.11
2018-10-21T19:36:18.845Z,97123.10
2018-10-21T19:38:48.298Z,97128.46
2018-10-21T19:41:18.102Z,97133.53
2018-10-21T19:43:49.398Z,97126.19
2018-10-21T19:46:18.243Z,97125.69
2018-10-21T19:48:49.074Z,97123.23
2018-10-21T19:51:17.963Z,97132.08
2018-10-21T19:53:49.868Z,97130.31
2018-10-21T19:56:20.200Z,97124.39
2018-10-21T19:58:56.450Z,97126.85
2018-10-21T20:01:26.031Z,97128.68
2018-10-21T20:03:57.057Z,97126.13
2018-10-21T20:06:29.083Z,97129.46
2018-10-21T20:09:00.518Z,97123.73
2018-10-21T20:11:31.335Z,97127.06
2018-10-21T20:14:01.878Z,97127.06
2018-10-21T20:16:31.492Z,97130.17
2018-10-21T20:19:00.394Z,97127.30
2018-10-21T20:21:31.653Z,97130.58
2018-10-21T20:24:01.435Z,97130.13
2018-10-21T20:26:30.282Z,97126.13
2018-10-21T20:29:00.699Z,97126.31
2018-10-21T20:31:29.591Z,97119.52
2018-10-21T20:34:04.569Z,97120.20
2018-10-21T20:36:34.134Z,97121.77
2018-10-21T20:39:12.548Z,97119.39
2018-10-21T20:41:44.207Z,97124.55
2018-10-21T20:44:14.687Z,97123.50
2018-10-21T20:46:44.355Z,97120.41
2018-10-21T20:49:15.555Z,97126.70
2018-10-21T20:51:44.910Z,97122.00
2018-10-21T20:54:15.018Z,97122.36
2018-10-21T20:56:43.864Z,97122.95
2018-10-21T20:59:12.702Z,97125.14
2018-10-21T21:01:49.623Z,97121.73
2018-10-21T21:04:19.463Z,97121.13
2018-10-21T21:06:48.912Z,97117.03
2018-10-21T21:09:17.724Z,97123.12
2018-10-21T21:11:47.089Z,97124.00
2018-10-21T21:14:16.555Z,97122.86
2018-10-21T21:16:45.388Z,97115.12
2018-10-21T21:19:14.980Z,97114.38
2018-10-21T21:21:43.844Z,97114.56
2018-10-21T21:24:12.713Z,97115.24
2018-10-21T21:26:44.048Z,97117.20
2018-10-21T21:29:13.765Z,97109.27
2018-10-21T21:31:42.860Z,97108.32
2018-10-21T21:34:13.519Z,97115.00
2018-10-21T21:36:43.924Z,97112.91
2018-10-21T21:39:14.486Z,97111.54
2018-10-21T21:41:45.483Z,97111.17
2018-10-21T21:44:15.456Z,97100.16
2018-10-21T21:46:45.089Z,97101.93
2018-10-21T21:49:14.578Z,97104.25
2018-10-21T21:51:43.428Z,97101.97
2018-10-21T21:54:13.688Z,97101.97
2018-10-21T21:56:43.246Z,97105.39
2018-10-21T21:59:12.079Z,97095.61
2018-10-21T22:01:41.926Z,97094.69
2018-10-21T22:04:11.122Z,97094.50
2018-10-21T22:06:40.754Z,97091.64
2018-10-21T22:09:13.761Z,97086.17
2018-10-21T22:11:44.653Z,97098.16
2018-10-21T22:14:14.439Z,97095.30
2018-10-21T22:16:43.262Z,97093.47
2018-10-21T22:19:12.601Z,97094.11
2018-10-21T22:21:41.482Z,97093.42
2018-10-21T22:24:12.343Z,97085.68
2018-10-21T22:26:41.239Z,97081.08
2018-10-21T22:29:11.796Z,97082.53
2018-10-21T22:31:41.418Z,97078.52
2018-10-21T22:34:13.819Z,97077.52
2018-10-21T22:36:42.623Z,97078.56
2018-10-21T22:39:11.452Z,97084.63
2018-10-21T22:41:40.317Z,97079.84
2018-10-21T22:44:09.147Z,97074.92
2018-10-21T22:46:38.005Z,97076.56
2018-10-21T22:49:07.264Z,97074.84
2018-10-21T22:51:36.176Z,97075.61
2018-10-21T22:54:05.165Z,97074.05
2018-10-21T22:56:34.420Z,97071.95
2018-10-21T22:59:03.856Z,97073.59
2018-10-21T23:01:32.737Z,97067.99
2018-10-21T23:04:02.094Z,97072.23
2018-10-21T23:06:31.524Z,97067.31
2018-10-21T23:09:00.396Z,97065.36
2018-10-21T23:11:29.783Z,97068.95
2018-10-21T23:13:58.639Z,97063.22
2018-10-21T23:16:27.470Z,97073.37
2018-10-21T23:19:10.987Z,97070.95
2018-10-21T23:21:39.873Z,97070.50
2018-10-21T23:24:09.550Z,97067.77
2018-10-21T23:31:24.103Z,97078.14
2018-10-21T23:33:54.689Z,97074.69
2018-10-21T23:36:23.548Z,97073.55
2018-10-21T23:38:52.343Z,97067.13
2018-10-21T23:41:21.534Z,97067.49
2018-10-21T23:43:51.103Z,97063.11
2018-10-21T23:46:19.959Z,97064.43
2018-10-21T23:48:48.898Z,97068.50
2018-10-21T23:51:18.082Z,97062.11
2018-10-21T23:53:46.937Z,97072.09
2018-10-21T23:56:15.851Z,97066.24
2018-10-21T23:58:44.774Z,97063.92
